sensor_id;sensor_type;location;lat;lon;timestamp;temperature;humidity
490;DHT22;231;48.120;11.576;2022-07-12T00:02:13;19.80;16.00
490;DHT22;231;48.120;11.576;2022-07-12T00:04:40;19.80;16.50
490;DHT22;231;48.120;11.576;2022-07-12T00:07:09;19.70;16.90
490;DHT22;231;48.120;11.576;2022-07-12T00:09:36;19.70;17.00
490;DHT22;231;48.120;11.576;2022-07-12T00:12:03;19.70;17.10
490;DHT22;231;48.120;11.576;2022-07-12T00:14:30;19.70;17.40
490;DHT22;231;48.120;11.576;2022-07-12T00:16:57;19.70;17.60
490;DHT22;231;48.120;11.576;2022-07-12T00:19:25;19.60;17.70
490;DHT22;231;48.120;11.576;2022-07-12T00:21:52;19.50;18.10
490;DHT22;231;48.120;11.576;2022-07-12T00:24:20;19.50;18.20
490;DHT22;231;48.120;11.576;2022-07-12T00:26:48;19.50;18.30
490;DHT22;231;48.120;11.576;2022-07-12T00:29:15;19.60;18.30
490;DHT22;231;48.120;11.576;2022-07-12T00:31:42;19.60;18.20
490;DHT22;231;48.120;11.576;2022-07-12T00:34:09;19.60;18.30
490;DHT22;231;48.120;11.576;2022-07-12T00:36:36;19.60;18.50
490;DHT22;231;48.120;11.576;2022-07-12T00:39:03;19.50;19.00
490;DHT22;231;48.120;11.576;2022-07-12T00:41:31;19.40;19.70
490;DHT22;231;48.120;11.576;2022-07-12T00:43:58;19.30;20.10
490;DHT22;231;48.120;11.576;2022-07-12T00:46:25;19.40;19.80
490;DHT22;231;48.120;11.576;2022-07-12T00:48:53;19.30;19.70
490;DHT22;231;48.120;11.576;2022-07-12T00:51:21;19.40;19.90
490;DHT22;231;48.120;11.576;2022-07-12T00:53:48;19.50;19.90
490;DHT22;231;48.120;11.576;2022-07-12T00:56:16;19.50;19.70
490;DHT22;231;48.120;11.576;2022-07-12T00:58:45;19.50;19.60
490;DHT22;231;48.120;11.576;2022-07-12T01:01:12;19.50;19.50
490;DHT22;231;48.120;11.576;2022-07-12T01:03:39;19.50;19.60
490;DHT22;231;48.120;11.576;2022-07-12T01:06:07;19.50;19.60
490;DHT22;231;48.120;11.576;2022-07-12T01:08:34;19.50;19.60
490;DHT22;231;48.120;11.576;2022-07-12T01:11:02;19.50;19.70
490;DHT22;231;48.120;11.576;2022-07-12T01:13:29;19.50;19.90
490;DHT22;231;48.120;11.576;2022-07-12T01:15:57;19.50;20.00
490;DHT22;231;48.120;11.576;2022-07-12T01:18:25;19.40;20.50
490;DHT22;231;48.120;11.576;2022-07-12T01:20:53;19.20;21.00
490;DHT22;231;48.120;11.576;2022-07-12T01:23:22;19.20;21.40
490;DHT22;231;48.120;11.576;2022-07-12T01:25:50;19.30;21.50
490;DHT22;231;48.120;11.576;2022-07-12T01:28:17;19.30;21.40
490;DHT22;231;48.120;11.576;2022-07-12T01:30:44;19.30;21.40
490;DHT22;231;48.120;11.576;2022-07-12T01:33:11;19.30;21.40
490;DHT22;231;48.120;11.576;2022-07-12T01:35:38;19.30;21.40
490;DHT22;231;48.120;11.576;2022-07-12T01:38:06;19.40;21.50
490;DHT22;231;48.120;11.576;2022-07-12T01:40:34;19.40;21.50
490;DHT22;231;48.120;11.576;2022-07-12T01:43:02;19.40;21.60
490;DHT22;231;48.120;11.576;2022-07-12T01:45:29;19.30;21.70
490;DHT22;231;48.120;11.576;2022-07-12T01:47:56;19.30;21.90
490;DHT22;231;48.120;11.576;2022-07-12T01:50:24;19.20;22.00
490;DHT22;231;48.120;11.576;2022-07-12T01:52:52;19.20;22.00
490;DHT22;231;48.120;11.576;2022-07-12T01:55:19;19.20;22.10
490;DHT22;231;48.120;11.576;2022-07-12T01:57:48;19.10;22.50
490;DHT22;231;48.120;11.576;2022-07-12T02:00:15;19.00;23.20
490;DHT22;231;48.120;11.576;2022-07-12T02:02:45;18.80;23.90
490;DHT22;231;48.120;11.576;2022-07-12T02:05:13;18.80;24.10
490;DHT22;231;48.120;11.576;2022-07-12T02:07:40;18.70;24.40
490;DHT22;231;48.120;11.576;2022-07-12T02:10:08;18.60;24.80
490;DHT22;231;48.120;11.576;2022-07-12T02:12:35;18.50;25.60
490;DHT22;231;48.120;11.576;2022-07-12T02:15:06;18.40;26.00
490;DHT22;231;48.120;11.576;2022-07-12T02:17:34;18.40;26.10
490;DHT22;231;48.120;11.576;2022-07-12T02:20:01;18.40;26.00
490;DHT22;231;48.120;11.576;2022-07-12T02:22:28;18.50;25.90
490;DHT22;231;48.120;11.576;2022-07-12T02:24:55;18.50;25.90
490;DHT22;231;48.120;11.576;2022-07-12T02:27:22;18.50;26.10
490;DHT22;231;48.120;11.576;2022-07-12T02:29:49;18.40;26.00
490;DHT22;231;48.120;11.576;2022-07-12T02:32:17;18.40;26.40
490;DHT22;231;48.120;11.576;2022-07-12T02:34:44;18.30;26.90
490;DHT22;231;48.120;11.576;2022-07-12T02:37:11;18.20;27.20
490;DHT22;231;48.120;11.576;2022-07-12T02:39:39;18.10;27.60
490;DHT22;231;48.120;11.576;2022-07-12T02:42:06;18.10;28.00
490;DHT22;231;48.120;11.576;2022-07-12T02:44:33;18.00;28.00
490;DHT22;231;48.120;11.576;2022-07-12T02:47:00;17.90;28.40
490;DHT22;231;48.120;11.576;2022-07-12T02:49:28;17.90;28.50
490;DHT22;231;48.120;11.576;2022-07-12T02:51:55;17.80;29.00
490;DHT22;231;48.120;11.576;2022-07-12T02:54:22;17.80;29.30
490;DHT22;231;48.120;11.576;2022-07-12T02:56:49;17.70;29.60
490;DHT22;231;48.120;11.576;2022-07-12T02:59:16;17.80;29.50
490;DHT22;231;48.120;11.576;2022-07-12T03:01:43;17.70;29.60
490;DHT22;231;48.120;11.576;2022-07-12T03:04:10;17.70;30.00
490;DHT22;231;48.120;11.576;2022-07-12T03:06:38;17.80;29.80
490;DHT22;231;48.120;11.576;2022-07-12T03:09:05;17.80;29.50
490;DHT22;231;48.120;11.576;2022-07-12T03:11:32;17.90;29.30
490;DHT22;231;48.120;11.576;2022-07-12T03:13:59;17.90;28.80
490;DHT22;231;48.120;11.576;2022-07-12T03:16:26;18.00;28.60
490;DHT22;231;48.120;11.576;2022-07-12T03:18:53;18.00;28.30
490;DHT22;231;48.120;11.576;2022-07-12T03:21:20;18.00;28.00
490;DHT22;231;48.120;11.576;2022-07-12T03:23:48;17.90;28.40
490;DHT22;231;48.120;11.576;2022-07-12T03:26:15;17.80;28.90
490;DHT22;231;48.120;11.576;2022-07-12T03:28:42;17.70;29.30
490;DHT22;231;48.120;11.576;2022-07-12T03:31:10;17.80;29.30
490;DHT22;231;48.120;11.576;2022-07-12T03:33:37;17.80;29.20
490;DHT22;231;48.120;11.576;2022-07-12T03:36:04;17.80;28.90
490;DHT22;231;48.120;11.576;2022-07-12T03:38:34;17.80;28.60
490;DHT22;231;48.120;11.576;2022-07-12T03:41:04;17.90;28.50
490;DHT22;231;48.120;11.576;2022-07-12T03:43:31;17.80;28.40
490;DHT22;231;48.120;11.576;2022-07-12T03:45:58;17.80;28.90
490;DHT22;231;48.120;11.576;2022-07-12T03:48:24;17.70;28.40
490;DHT22;231;48.120;11.576;2022-07-12T03:50:51;17.70;28.80
490;DHT22;231;48.120;11.576;2022-07-12T03:53:19;17.60;29.00
490;DHT22;231;48.120;11.576;2022-07-12T03:55:46;17.60;29.40
490;DHT22;231;48.120;11.576;2022-07-12T03:58:14;17.50;29.40
490;DHT22;231;48.120;11.576;2022-07-12T04:00:41;17.40;29.80
490;DHT22;231;48.120;11.576;2022-07-12T04:03:09;17.30;29.70
490;DHT22;231;48.120;11.576;2022-07-12T04:05:36;17.30;30.20
490;DHT22;231;48.120;11.576;2022-07-12T04:08:03;17.20;30.80
490;DHT22;231;48.120;11.576;2022-07-12T04:10:30;17.20;31.40
490;DHT22;231;48.120;11.576;2022-07-12T04:12:57;17.20;31.60
490;DHT22;231;48.120;11.576;2022-07-12T04:15:26;17.30;31.30
490;DHT22;231;48.120;11.576;2022-07-12T04:17:53;17.40;30.90
490;DHT22;231;48.120;11.576;2022-07-12T04:20:19;17.60;30.00
490;DHT22;231;48.120;11.576;2022-07-12T04:22:46;17.70;29.80
490;DHT22;231;48.120;11.576;2022-07-12T04:25:13;17.80;29.20
490;DHT22;231;48.120;11.576;2022-07-12T04:27:40;17.80;28.60
490;DHT22;231;48.120;11.576;2022-07-12T04:30:08;17.70;28.60
490;DHT22;231;48.120;11.576;2022-07-12T04:32:37;17.70;28.60
490;DHT22;231;48.120;11.576;2022-07-12T04:35:04;17.70;29.20
490;DHT22;231;48.120;11.576;2022-07-12T04:37:32;17.60;29.40
490;DHT22;231;48.120;11.576;2022-07-12T04:39:59;17.60;29.90
490;DHT22;231;48.120;11.576;2022-07-12T04:42:25;17.60;29.90
490;DHT22;231;48.120;11.576;2022-07-12T04:44:53;17.60;29.70
490;DHT22;231;48.120;11.576;2022-07-12T04:47:20;17.70;29.60
490;DHT22;231;48.120;11.576;2022-07-12T04:49:49;17.70;29.80
490;DHT22;231;48.120;11.576;2022-07-12T04:52:16;17.80;29.50
490;DHT22;231;48.120;11.576;2022-07-12T04:54:43;17.90;29.30
490;DHT22;231;48.120;11.576;2022-07-12T04:57:09;18.00;29.00
490;DHT22;231;48.120;11.576;2022-07-12T04:59:36;18.00;28.70
490;DHT22;231;48.120;11.576;2022-07-12T05:02:04;18.10;28.00
490;DHT22;231;48.120;11.576;2022-07-12T05:04:32;18.10;28.10
490;DHT22;231;48.120;11.576;2022-07-12T05:07:00;18.00;28.40
490;DHT22;231;48.120;11.576;2022-07-12T05:09:27;18.10;28.40
490;DHT22;231;48.120;11.576;2022-07-12T05:11:54;18.10;28.40
490;DHT22;231;48.120;11.576;2022-07-12T05:14:21;18.30;28.10
490;DHT22;231;48.120;11.576;2022-07-12T05:16:48;18.30;27.30
490;DHT22;231;48.120;11.576;2022-07-12T05:19:15;18.30;26.60
490;DHT22;231;48.120;11.576;2022-07-12T05:21:42;18.30;27.00
490;DHT22;231;48.120;11.576;2022-07-12T05:24:11;18.40;26.80
490;DHT22;231;48.120;11.576;2022-07-12T05:26:38;18.50;26.60
490;DHT22;231;48.120;11.576;2022-07-12T05:29:04;18.70;26.30
490;DHT22;231;48.120;11.576;2022-07-12T05:31:31;18.70;26.00
490;DHT22;231;48.120;11.576;2022-07-12T05:33:58;18.80;25.10
490;DHT22;231;48.120;11.576;2022-07-12T05:36:25;18.60;24.60
490;DHT22;231;48.120;11.576;2022-07-12T05:38:53;18.80;24.70
490;DHT22;231;48.120;11.576;2022-07-12T05:41:21;18.80;24.30
490;DHT22;231;48.120;11.576;2022-07-12T05:43:48;18.70;24.10
490;DHT22;231;48.120;11.576;2022-07-12T05:46:15;18.80;24.20
490;DHT22;231;48.120;11.576;2022-07-12T05:48:42;18.90;24.10
490;DHT22;231;48.120;11.576;2022-07-12T05:51:09;19.00;23.70
490;DHT22;231;48.120;11.576;2022-07-12T05:53:53;18.90;23.50
490;DHT22;231;48.120;11.576;2022-07-12T05:56:21;18.90;23.60
490;DHT22;231;48.120;11.576;2022-07-12T05:58:48;18.90;23.30
490;DHT22;231;48.120;11.576;2022-07-12T06:01:16;18.90;23.10
490;DHT22;231;48.120;11.576;2022-07-12T06:03:43;18.90;23.00
490;DHT22;231;48.120;11.576;2022-07-12T06:06:09;18.60;23.00
490;DHT22;231;48.120;11.576;2022-07-12T06:08:36;18.70;23.30
490;DHT22;231;48.120;11.576;2022-07-12T06:11:03;18.70;23.00
490;DHT22;231;48.120;11.576;2022-07-12T06:13:32;18.70;23.00
490;DHT22;231;48.120;11.576;2022-07-12T06:15:59;18.70;23.30
490;DHT22;231;48.120;11.576;2022-07-12T06:18:26;18.70;22.80
490;DHT22;231;48.120;11.576;2022-07-12T06:20:53;18.90;22.80
490;DHT22;231;48.120;11.576;2022-07-12T06:23:20;18.90;22.40
490;DHT22;231;48.120;11.576;2022-07-12T06:25:47;19.00;22.30
490;DHT22;231;48.120;11.576;2022-07-12T06:28:16;19.10;21.90
490;DHT22;231;48.120;11.576;2022-07-12T06:30:45;19.10;21.90
490;DHT22;231;48.120;11.576;2022-07-12T06:33:12;19.20;21.40
490;DHT22;231;48.120;11.576;2022-07-12T06:35:39;19.20;21.00
490;DHT22;231;48.120;11.576;2022-07-12T06:38:06;19.30;21.10
490;DHT22;231;48.120;11.576;2022-07-12T06:40:33;19.50;20.60
490;DHT22;231;48.120;11.576;2022-07-12T06:43:00;19.60;20.40
490;DHT22;231;48.120;11.576;2022-07-12T06:45:27;19.70;19.30
490;DHT22;231;48.120;11.576;2022-07-12T06:47:55;19.70;18.90
490;DHT22;231;48.120;11.576;2022-07-12T06:50:22;19.70;18.60
490;DHT22;231;48.120;11.576;2022-07-12T06:52:49;19.70;19.20
490;DHT22;231;48.120;11.576;2022-07-12T06:55:16;19.80;18.70
490;DHT22;231;48.120;11.576;2022-07-12T06:57:43;20.00;18.20
490;DHT22;231;48.120;11.576;2022-07-12T07:00:11;20.00;17.80
490;DHT22;231;48.120;11.576;2022-07-12T07:02:38;20.00;17.70
490;DHT22;231;48.120;11.576;2022-07-12T07:05:07;20.10;17.40
490;DHT22;231;48.120;11.576;2022-07-12T07:07:36;19.90;17.40
490;DHT22;231;48.120;11.576;2022-07-12T07:10:04;20.10;17.40
490;DHT22;231;48.120;11.576;2022-07-12T07:12:31;20.20;17.20
490;DHT22;231;48.120;11.576;2022-07-12T07:14:58;20.20;16.70
490;DHT22;231;48.120;11.576;2022-07-12T07:17:25;21.90;15.40
490;DHT22;231;48.120;11.576;2022-07-12T07:19:52;24.30;9.60
490;DHT22;231;48.120;11.576;2022-07-12T07:22:20;26.30;4.20
490;DHT22;231;48.120;11.576;2022-07-12T07:24:48;28.10;1.00
490;DHT22;231;48.120;11.576;2022-07-12T07:27:15;28.40;1.00
490;DHT22;231;48.120;11.576;2022-07-12T07:29:42;29.50;1.00
490;DHT22;231;48.120;11.576;2022-07-12T07:32:26;30.80;1.00
490;DHT22;231;48.120;11.576;2022-07-12T07:34:53;31.80;1.00
490;DHT22;231;48.120;11.576;2022-07-12T07:37:21;31.70;1.00
490;DHT22;231;48.120;11.576;2022-07-12T07:39:49;30.50;1.00
490;DHT22;231;48.120;11.576;2022-07-12T07:42:16;30.00;1.00
490;DHT22;231;48.120;11.576;2022-07-12T07:44:43;29.50;1.00
490;DHT22;231;48.120;11.576;2022-07-12T07:47:10;28.60;1.00
490;DHT22;231;48.120;11.576;2022-07-12T07:49:37;28.50;1.00
490;DHT22;231;48.120;11.576;2022-07-12T07:52:04;28.70;1.00
490;DHT22;231;48.120;11.576;2022-07-12T07:54:32;28.40;1.00
490;DHT22;231;48.120;11.576;2022-07-12T07:56:59;28.30;1.00
490;DHT22;231;48.120;11.576;2022-07-12T07:59:26;28.30;1.00
490;DHT22;231;48.120;11.576;2022-07-12T08:01:53;28.30;1.00
490;DHT22;231;48.120;11.576;2022-07-12T08:04:21;28.40;1.00
490;DHT22;231;48.120;11.576;2022-07-12T08:06:49;28.50;1.00
490;DHT22;231;48.120;11.576;2022-07-12T08:09:16;28.50;1.00
490;DHT22;231;48.120;11.576;2022-07-12T08:11:45;27.90;1.00
490;DHT22;231;48.120;11.576;2022-07-12T08:14:12;27.00;1.00
490;DHT22;231;48.120;11.576;2022-07-12T08:16:39;26.90;1.00
490;DHT22;231;48.120;11.576;2022-07-12T08:19:06;26.50;1.00
490;DHT22;231;48.120;11.576;2022-07-12T08:21:33;26.10;1.00
490;DHT22;231;48.120;11.576;2022-07-12T08:24:00;25.40;1.00
490;DHT22;231;48.120;11.576;2022-07-12T08:26:27;24.90;1.00
490;DHT22;231;48.120;11.576;2022-07-12T08:28:55;25.10;1.00
490;DHT22;231;48.120;11.576;2022-07-12T08:31:22;25.10;1.40
490;DHT22;231;48.120;11.576;2022-07-12T08:33:49;25.20;1.00
490;DHT22;231;48.120;11.576;2022-07-12T08:36:17;25.10;1.00
490;DHT22;231;48.120;11.576;2022-07-12T08:38:44;24.70;1.20
490;DHT22;231;48.120;11.576;2022-07-12T08:41:12;24.40;1.90
490;DHT22;231;48.120;11.576;2022-07-12T08:43:40;24.00;2.30
490;DHT22;231;48.120;11.576;2022-07-12T08:46:10;23.70;3.80
490;DHT22;231;48.120;11.576;2022-07-12T08:48:39;23.40;3.90
490;DHT22;231;48.120;11.576;2022-07-12T08:51:07;23.20;3.20
490;DHT22;231;48.120;11.576;2022-07-12T08:53:35;23.10;4.30
490;DHT22;231;48.120;11.576;2022-07-12T08:56:03;23.40;4.30
490;DHT22;231;48.120;11.576;2022-07-12T08:58:31;23.50;4.10
490;DHT22;231;48.120;11.576;2022-07-12T09:00:58;23.70;3.80
490;DHT22;231;48.120;11.576;2022-07-12T09:03:27;23.60;3.30
490;DHT22;231;48.120;11.576;2022-07-12T09:05:55;23.70;3.20
490;DHT22;231;48.120;11.576;2022-07-12T09:08:28;23.80;1.90
490;DHT22;231;48.120;11.576;2022-07-12T09:10:57;23.80;1.00
490;DHT22;231;48.120;11.576;2022-07-12T09:13:50;24.00;1.00
490;DHT22;231;48.120;11.576;2022-07-12T09:16:19;24.00;1.00
490;DHT22;231;48.120;11.576;2022-07-12T09:18:48;24.00;1.00
490;DHT22;231;48.120;11.576;2022-07-12T09:21:22;24.00;1.20
490;DHT22;231;48.120;11.576;2022-07-12T09:23:51;23.80;1.90
490;DHT22;231;48.120;11.576;2022-07-12T09:26:19;23.60;1.50
490;DHT22;231;48.120;11.576;2022-07-12T09:28:49;23.40;1.20
490;DHT22;231;48.120;11.576;2022-07-12T09:31:17;23.20;2.20
490;DHT22;231;48.120;11.576;2022-07-12T09:36:38;23.10;2.40
490;DHT22;231;48.120;11.576;2022-07-12T09:39:05;22.70;2.20
490;DHT22;231;48.120;11.576;2022-07-12T09:41:33;22.70;3.30
490;DHT22;231;48.120;11.576;2022-07-12T09:44:01;22.60;2.60
490;DHT22;231;48.120;11.576;2022-07-12T09:46:32;22.60;3.10
490;DHT22;231;48.120;11.576;2022-07-12T09:48:59;22.80;3.30
490;DHT22;231;48.120;11.576;2022-07-12T09:51:28;23.00;3.40
490;DHT22;231;48.120;11.576;2022-07-12T09:53:58;23.00;3.20
490;DHT22;231;48.120;11.576;2022-07-12T09:56:30;23.00;3.30
490;DHT22;231;48.120;11.576;2022-07-12T09:59:01;23.20;3.50
490;DHT22;231;48.120;11.576;2022-07-12T10:01:31;23.30;3.10
490;DHT22;231;48.120;11.576;2022-07-12T10:03:59;23.30;3.20
490;DHT22;231;48.120;11.576;2022-07-12T10:06:27;23.30;3.00
490;DHT22;231;48.120;11.576;2022-07-12T10:08:56;23.40;3.20
490;DHT22;231;48.120;11.576;2022-07-12T10:11:24;23.60;3.30
490;DHT22;231;48.120;11.576;2022-07-12T10:13:52;23.60;3.30
490;DHT22;231;48.120;11.576;2022-07-12T10:16:25;23.70;1.90
490;DHT22;231;48.120;11.576;2022-07-12T10:19:22;23.60;2.50
490;DHT22;231;48.120;11.576;2022-07-12T10:21:51;23.40;3.10
490;DHT22;231;48.120;11.576;2022-07-12T10:24:47;23.30;3.50
490;DHT22;231;48.120;11.576;2022-07-12T10:27:31;23.30;3.80
490;DHT22;231;48.120;11.576;2022-07-12T10:30:19;23.20;4.00
490;DHT22;231;48.120;11.576;2022-07-12T10:32:56;23.40;4.10
490;DHT22;231;48.120;11.576;2022-07-12T10:35:26;23.50;2.90
490;DHT22;231;48.120;11.576;2022-07-12T10:38:18;23.40;2.80
490;DHT22;231;48.120;11.576;2022-07-12T10:40:57;23.40;2.70
490;DHT22;231;48.120;11.576;2022-07-12T10:43:29;23.50;2.60
490;DHT22;231;48.120;11.576;2022-07-12T10:46:16;23.60;2.60
490;DHT22;231;48.120;11.576;2022-07-12T10:48:44;23.70;2.30
490;DHT22;231;48.120;11.576;2022-07-12T10:51:13;23.70;2.10
490;DHT22;231;48.120;11.576;2022-07-12T10:53:41;23.80;2.30
490;DHT22;231;48.120;11.576;2022-07-12T10:56:13;23.80;2.00
490;DHT22;231;48.120;11.576;2022-07-12T10:58:42;23.70;2.00
490;DHT22;231;48.120;11.576;2022-07-12T11:01:10;23.70;1.80
490;DHT22;231;48.120;11.576;2022-07-12T11:03:41;23.80;1.60
490;DHT22;231;48.120;11.576;2022-07-12T11:06:10;24.00;1.50
490;DHT22;231;48.120;11.576;2022-07-12T11:08:52;24.20;1.10
490;DHT22;231;48.120;11.576;2022-07-12T11:11:23;24.20;1.30
490;DHT22;231;48.120;11.576;2022-07-12T11:13:50;24.20;1.00
490;DHT22;231;48.120;11.576;2022-07-12T11:16:17;24.30;1.00
490;DHT22;231;48.120;11.576;2022-07-12T11:18:44;24.20;1.00
490;DHT22;231;48.120;11.576;2022-07-12T11:21:12;24.20;1.00
490;DHT22;231;48.120;11.576;2022-07-12T11:23:40;24.40;1.00
490;DHT22;231;48.120;11.576;2022-07-12T11:26:21;24.40;1.00
490;DHT22;231;48.120;11.576;2022-07-12T11:28:48;24.40;1.00
490;DHT22;231;48.120;11.576;2022-07-12T11:31:18;24.30;1.00
490;DHT22;231;48.120;11.576;2022-07-12T11:33:48;24.40;1.00
490;DHT22;231;48.120;11.576;2022-07-12T11:36:16;24.30;1.00
490;DHT22;231;48.120;11.576;2022-07-12T11:38:45;24.30;1.00
490;DHT22;231;48.120;11.576;2022-07-12T11:41:13;24.10;1.00
490;DHT22;231;48.120;11.576;2022-07-12T11:43:42;24.10;1.00
490;DHT22;231;48.120;11.576;2022-07-12T11:46:10;23.90;1.00
490;DHT22;231;48.120;11.576;2022-07-12T11:48:37;23.90;1.00
490;DHT22;231;48.120;11.576;2022-07-12T11:51:05;24.10;1.00
490;DHT22;231;48.120;11.576;2022-07-12T11:53:41;24.20;1.00
490;DHT22;231;48.120;11.576;2022-07-12T11:56:09;24.30;1.00
490;DHT22;231;48.120;11.576;2022-07-12T11:58:36;24.20;1.00
490;DHT22;231;48.120;11.576;2022-07-12T12:01:10;24.40;1.00
490;DHT22;231;48.120;11.576;2022-07-12T12:03:43;24.60;1.00
490;DHT22;231;48.120;11.576;2022-07-12T12:06:11;24.90;1.00
490;DHT22;231;48.120;11.576;2022-07-12T12:08:38;25.20;1.00
490;DHT22;231;48.120;11.576;2022-07-12T12:11:05;25.50;1.00
490;DHT22;231;48.120;11.576;2022-07-12T12:13:32;25.60;1.00
490;DHT22;231;48.120;11.576;2022-07-12T12:16:01;25.70;1.00
490;DHT22;231;48.120;11.576;2022-07-12T12:18:31;25.90;1.00
490;DHT22;231;48.120;11.576;2022-07-12T12:21:01;26.00;1.00
490;DHT22;231;48.120;11.576;2022-07-12T12:23:28;26.10;1.00
490;DHT22;231;48.120;11.576;2022-07-12T12:26:15;26.00;1.00
490;DHT22;231;48.120;11.576;2022-07-12T12:28:46;26.10;1.00
490;DHT22;231;48.120;11.576;2022-07-12T12:31:15;26.00;1.00
490;DHT22;231;48.120;11.576;2022-07-12T12:33:44;25.70;1.00
490;DHT22;231;48.120;11.576;2022-07-12T12:36:17;25.60;1.00
490;DHT22;231;48.120;11.576;2022-07-12T12:38:44;25.50;1.00
490;DHT22;231;48.120;11.576;2022-07-12T12:41:12;25.50;1.00
490;DHT22;231;48.120;11.576;2022-07-12T12:43:40;25.60;1.00
490;DHT22;231;48.120;11.576;2022-07-12T12:46:07;25.80;1.00
490;DHT22;231;48.120;11.576;2022-07-12T12:48:35;25.80;1.00
490;DHT22;231;48.120;11.576;2022-07-12T12:51:05;25.90;1.00
490;DHT22;231;48.120;11.576;2022-07-12T12:53:37;26.00;1.00
490;DHT22;231;48.120;11.576;2022-07-12T12:56:06;26.10;1.00
490;DHT22;231;48.120;11.576;2022-07-12T12:58:38;26.10;1.00
490;DHT22;231;48.120;11.576;2022-07-12T13:01:07;25.70;1.00
490;DHT22;231;48.120;11.576;2022-07-12T13:03:34;25.60;1.00
490;DHT22;231;48.120;11.576;2022-07-12T13:06:01;25.30;1.00
490;DHT22;231;48.120;11.576;2022-07-12T13:08:32;25.00;1.00
490;DHT22;231;48.120;11.576;2022-07-12T13:10:59;25.10;1.00
490;DHT22;231;48.120;11.576;2022-07-12T13:13:43;25.10;1.00
490;DHT22;231;48.120;11.576;2022-07-12T13:16:10;24.90;1.00
490;DHT22;231;48.120;11.576;2022-07-12T13:18:37;25.20;1.00
490;DHT22;231;48.120;11.576;2022-07-12T13:21:05;25.30;1.00
490;DHT22;231;48.120;11.576;2022-07-12T13:23:33;25.60;1.00
490;DHT22;231;48.120;11.576;2022-07-12T13:26:00;25.70;1.00
490;DHT22;231;48.120;11.576;2022-07-12T13:28:27;25.80;1.00
490;DHT22;231;48.120;11.576;2022-07-12T13:30:54;25.80;1.00
490;DHT22;231;48.120;11.576;2022-07-12T13:33:22;25.80;1.00
490;DHT22;231;48.120;11.576;2022-07-12T13:35:49;25.60;1.00
490;DHT22;231;48.120;11.576;2022-07-12T13:38:16;25.70;1.00
490;DHT22;231;48.120;11.576;2022-07-12T13:40:44;25.90;1.00
490;DHT22;231;48.120;11.576;2022-07-12T13:43:17;26.20;1.00
490;DHT22;231;48.120;11.576;2022-07-12T13:45:49;26.20;1.00
490;DHT22;231;48.120;11.576;2022-07-12T13:48:16;26.20;1.00
490;DHT22;231;48.120;11.576;2022-07-12T13:50:44;26.20;1.00
490;DHT22;231;48.120;11.576;2022-07-12T13:53:12;26.30;1.00
490;DHT22;231;48.120;11.576;2022-07-12T13:55:41;26.10;1.00
490;DHT22;231;48.120;11.576;2022-07-12T13:58:10;26.00;1.00
490;DHT22;231;48.120;11.576;2022-07-12T14:00:37;25.90;1.00
490;DHT22;231;48.120;11.576;2022-07-12T14:03:04;25.90;1.00
490;DHT22;231;48.120;11.576;2022-07-12T14:05:31;25.90;1.00
490;DHT22;231;48.120;11.576;2022-07-12T14:07:58;25.70;1.00
490;DHT22;231;48.120;11.576;2022-07-12T14:10:25;25.70;1.00
490;DHT22;231;48.120;11.576;2022-07-12T14:12:53;25.90;1.00
490;DHT22;231;48.120;11.576;2022-07-12T14:15:21;26.00;1.00
490;DHT22;231;48.120;11.576;2022-07-12T14:18:15;25.80;1.00
490;DHT22;231;48.120;11.576;2022-07-12T14:20:44;25.60;1.00
490;DHT22;231;48.120;11.576;2022-07-12T14:23:12;25.40;1.00
490;DHT22;231;48.120;11.576;2022-07-12T14:25:39;25.40;1.00
490;DHT22;231;48.120;11.576;2022-07-12T14:28:06;25.50;1.00
490;DHT22;231;48.120;11.576;2022-07-12T14:30:33;25.60;1.00
490;DHT22;231;48.120;11.576;2022-07-12T14:33:00;25.50;1.00
490;DHT22;231;48.120;11.576;2022-07-12T14:35:29;25.40;1.00
490;DHT22;231;48.120;11.576;2022-07-12T14:37:55;25.20;1.00
490;DHT22;231;48.120;11.576;2022-07-12T14:40:22;25.40;1.00
490;DHT22;231;48.120;11.576;2022-07-12T14:42:49;25.70;1.00
490;DHT22;231;48.120;11.576;2022-07-12T14:45:16;25.90;1.00
490;DHT22;231;48.120;11.576;2022-07-12T14:47:43;25.90;1.00
490;DHT22;231;48.120;11.576;2022-07-12T14:50:10;25.90;1.00
490;DHT22;231;48.120;11.576;2022-07-12T14:52:39;25.60;1.00
490;DHT22;231;48.120;11.576;2022-07-12T14:55:07;25.40;1.00
490;DHT22;231;48.120;11.576;2022-07-12T14:57:34;25.70;1.00
490;DHT22;231;48.120;11.576;2022-07-12T15:00:02;25.80;1.00
490;DHT22;231;48.120;11.576;2022-07-12T15:02:30;25.70;1.00
490;DHT22;231;48.120;11.576;2022-07-12T15:04:58;25.70;1.00
490;DHT22;231;48.120;11.576;2022-07-12T15:07:28;25.50;1.00
490;DHT22;231;48.120;11.576;2022-07-12T15:09:57;25.60;1.00
490;DHT22;231;48.120;11.576;2022-07-12T15:12:24;25.70;1.00
490;DHT22;231;48.120;11.576;2022-07-12T15:14:51;25.70;1.00
490;DHT22;231;48.120;11.576;2022-07-12T15:17:19;25.60;1.00
490;DHT22;231;48.120;11.576;2022-07-12T15:19:46;25.40;1.00
490;DHT22;231;48.120;11.576;2022-07-12T15:22:12;25.30;1.00
490;DHT22;231;48.120;11.576;2022-07-12T15:24:40;25.20;1.00
490;DHT22;231;48.120;11.576;2022-07-12T15:27:08;25.40;1.00
490;DHT22;231;48.120;11.576;2022-07-12T15:29:36;25.50;1.00
490;DHT22;231;48.120;11.576;2022-07-12T15:32:06;25.50;1.00
490;DHT22;231;48.120;11.576;2022-07-12T15:34:33;25.60;1.00
490;DHT22;231;48.120;11.576;2022-07-12T15:37:00;25.70;1.00
490;DHT22;231;48.120;11.576;2022-07-12T15:39:27;25.60;1.00
490;DHT22;231;48.120;11.576;2022-07-12T15:41:54;25.60;1.00
490;DHT22;231;48.120;11.576;2022-07-12T15:44:23;25.50;1.00
490;DHT22;231;48.120;11.576;2022-07-12T15:46:50;25.50;1.00
490;DHT22;231;48.120;11.576;2022-07-12T15:49:17;25.40;1.00
490;DHT22;231;48.120;11.576;2022-07-12T15:51:44;25.40;1.00
490;DHT22;231;48.120;11.576;2022-07-12T15:54:28;25.60;1.00
490;DHT22;231;48.120;11.576;2022-07-12T15:56:55;25.80;1.00
490;DHT22;231;48.120;11.576;2022-07-12T15:59:23;26.00;1.00
490;DHT22;231;48.120;11.576;2022-07-12T16:01:50;26.00;1.00
490;DHT22;231;48.120;11.576;2022-07-12T16:04:18;26.10;1.00
490;DHT22;231;48.120;11.576;2022-07-12T16:06:45;26.00;1.00
490;DHT22;231;48.120;11.576;2022-07-12T16:09:12;25.90;1.00
490;DHT22;231;48.120;11.576;2022-07-12T16:11:39;26.00;1.00
490;DHT22;231;48.120;11.576;2022-07-12T16:14:06;26.10;1.00
490;DHT22;231;48.120;11.576;2022-07-12T16:16:35;26.30;1.00
490;DHT22;231;48.120;11.576;2022-07-12T16:19:02;26.40;1.00
490;DHT22;231;48.120;11.576;2022-07-12T16:21:30;26.40;1.00
490;DHT22;231;48.120;11.576;2022-07-12T16:23:58;26.40;1.00
490;DHT22;231;48.120;11.576;2022-07-12T16:26:25;26.40;1.00
490;DHT22;231;48.120;11.576;2022-07-12T16:28:52;26.20;1.00
490;DHT22;231;48.120;11.576;2022-07-12T16:31:19;26.30;1.00
490;DHT22;231;48.120;11.576;2022-07-12T16:33:47;26.20;1.00
490;DHT22;231;48.120;11.576;2022-07-12T16:36:15;26.20;1.00
490;DHT22;231;48.120;11.576;2022-07-12T16:38:42;26.00;1.00